createdAt,value
2017-05-02T00:01:20.782Z,7.42
2017-05-02T00:03:48.349Z,8.48
2017-05-02T00:06:15.867Z,9.18
2017-05-02T00:08:43.421Z,7.04
2017-05-02T00:11:10.940Z,8.30
2017-05-02T00:13:38.596Z,8.04
2017-05-02T00:16:06.124Z,7.78
2017-05-02T00:18:33.645Z,7.10
2017-05-02T00:21:01.208Z,7.84
2017-05-02T00:23:28.725Z,8.08
2017-05-02T00:25:56.319Z,9.66
2017-05-02T00:28:23.906Z,7.46
2017-05-02T00:30:51.788Z,8.24
2017-05-02T00:33:19.312Z,6.96
2017-05-02T00:35:46.838Z,7.20
2017-05-02T00:38:14.386Z,6.80
2017-05-02T00:40:41.904Z,7.44
2017-05-02T00:43:09.630Z,7.62
2017-05-02T00:45:37.148Z,6.90
2017-05-02T00:48:04.657Z,6.58
2017-05-02T00:50:32.215Z,6.16
2017-05-02T00:52:59.728Z,7.12
2017-05-02T00:55:27.587Z,6.50
2017-05-02T00:57:55.103Z,5.62
2017-05-02T01:00:22.615Z,6.56
2017-05-02T01:02:50.189Z,7.32
2017-05-02T01:05:17.703Z,7.30
2017-05-02T01:07:45.734Z,7.14
2017-05-02T01:10:13.303Z,7.32
2017-05-02T01:12:40.901Z,8.00
2017-05-02T01:15:08.458Z,7.64
2017-05-02T01:17:35.984Z,7.50
2017-05-02T01:20:03.648Z,7.14
2017-05-02T01:22:31.192Z,7.24
2017-05-02T01:24:58.717Z,7.46
2017-05-02T01:27:26.300Z,7.36
2017-05-02T01:29:53.833Z,6.46
2017-05-02T01:32:21.500Z,8.04
2017-05-02T01:34:49.060Z,7.76
2017-05-02T01:37:16.575Z,6.78
2017-05-02T01:39:44.111Z,7.58
2017-05-02T01:42:11.649Z,7.58
2017-05-02T01:44:39.203Z,8.10
2017-05-02T01:47:06.715Z,7.10
2017-05-02T01:49:34.384Z,8.50
2017-05-02T01:52:01.923Z,8.24
2017-05-02T01:54:29.436Z,8.04
2017-05-02T01:56:56.992Z,8.20
2017-05-02T01:59:24.498Z,7.90
2017-05-02T02:01:52.159Z,7.96
2017-05-02T02:04:19.668Z,7.58
2017-05-02T02:06:47.179Z,7.64
2017-05-02T02:09:14.760Z,7.18
2017-05-02T02:11:42.295Z,7.08
2017-05-02T02:14:09.967Z,8.68
2017-05-02T02:16:37.473Z,8.76
2017-05-02T02:19:04.990Z,8.30
2017-05-02T02:21:32.531Z,7.40
2017-05-02T02:24:00.049Z,8.20
2017-05-02T02:26:27.595Z,8.16
2017-05-02T02:28:55.103Z,8.24
2017-05-02T02:31:22.790Z,7.92
2017-05-02T02:33:50.315Z,8.32
2017-05-02T02:36:17.883Z,8.70
2017-05-02T02:38:45.465Z,7.82
2017-05-02T02:41:13.020Z,8.36
2017-05-02T02:43:40.612Z,8.28
2017-05-02T02:46:08.229Z,8.66
2017-05-02T02:48:35.791Z,7.68
2017-05-02T02:51:03.311Z,7.70
2017-05-02T02:53:30.959Z,7.92
2017-05-02T02:55:58.479Z,8.16
2017-05-02T02:58:26.151Z,7.96
2017-05-02T03:00:53.695Z,8.06
2017-05-02T03:03:21.209Z,9.48
2017-05-02T03:05:48.884Z,7.96
2017-05-02T03:08:16.526Z,7.74
2017-05-02T03:10:44.088Z,7.36
2017-05-02T03:13:11.667Z,7.90
2017-05-02T03:15:39.231Z,8.46
2017-05-02T03:18:06.898Z,8.76
2017-05-02T03:20:34.456Z,8.20
2017-05-02T03:23:02.336Z,9.00
2017-05-02T03:25:29.854Z,8.28
2017-05-02T03:27:57.375Z,7.10
2017-05-02T03:30:25.423Z,8.20
2017-05-02T03:32:52.965Z,9.44
2017-05-02T03:35:20.477Z,8.08
2017-05-02T03:37:48.032Z,7.80
2017-05-02T03:40:15.555Z,8.08
2017-05-02T03:42:43.522Z,8.58
2017-05-02T03:45:11.032Z,8.46
2017-05-02T03:47:38.563Z,7.76
2017-05-02T03:50:06.151Z,7.58
2017-05-02T03:52:33.706Z,8.16
2017-05-02T03:55:01.729Z,9.06
2017-05-02T03:57:29.268Z,9.26
2017-05-02T03:59:56.821Z,8.96
2017-05-02T04:02:24.371Z,8.52
2017-05-02T04:04:51.890Z,7.58
2017-05-02T04:07:19.441Z,8.32
2017-05-02T04:09:46.947Z,8.12
2017-05-02T04:12:14.655Z,8.10
2017-05-02T04:14:42.251Z,8.80
2017-05-02T04:17:09.898Z,8.04
2017-05-02T04:19:37.543Z,9.30
2017-05-02T04:22:05.142Z,9.02
2017-05-02T04:24:32.807Z,13.42
2017-05-02T04:27:00.331Z,12.86
2017-05-02T04:29:27.849Z,8.68
2017-05-02T04:31:55.436Z,10.18
2017-05-02T04:34:22.952Z,9.98
2017-05-02T04:36:50.530Z,10.12
2017-05-02T04:39:18.059Z,17.28
2017-05-02T04:41:45.878Z,10.14
2017-05-02T04:44:13.396Z,9.92
2017-05-02T04:46:40.916Z,9.94
2017-05-02T04:49:08.488Z,10.04
2017-05-02T04:51:36.012Z,11.32
2017-05-02T04:54:03.771Z,56.74
2017-05-02T04:56:31.350Z,14.54
2017-05-02T04:58:58.973Z,11.36
2017-05-02T05:01:26.659Z,11.08
2017-05-02T05:03:54.196Z,11.86
2017-05-02T05:06:21.753Z,11.54
2017-05-02T05:08:49.272Z,11.20
2017-05-02T05:11:16.911Z,11.46
2017-05-02T05:13:44.445Z,11.74
2017-05-02T05:16:12.111Z,11.80
2017-05-02T05:18:39.767Z,10.48
2017-05-02T05:21:07.306Z,17.22
2017-05-02T05:23:35.044Z,13.00
2017-05-02T05:26:02.572Z,11.86
2017-05-02T05:28:30.117Z,12.46
2017-05-02T05:30:57.676Z,11.20
2017-05-02T05:33:25.237Z,12.38
2017-05-02T05:35:52.924Z,12.30
2017-05-02T05:38:20.455Z,12.80
2017-05-02T05:40:48.029Z,11.20
2017-05-02T05:43:15.591Z,11.68
2017-05-02T05:45:43.131Z,13.14
2017-05-02T05:48:10.692Z,13.72
2017-05-02T05:50:38.222Z,12.62
2017-05-02T05:53:05.971Z,13.20
2017-05-02T05:55:33.491Z,12.54
2017-05-02T05:58:01.008Z,13.24
2017-05-02T06:00:28.573Z,13.74
2017-05-02T06:02:56.069Z,12.70
2017-05-02T06:05:23.618Z,12.62
2017-05-02T06:07:51.153Z,11.80
2017-05-02T06:10:18.808Z,13.70
2017-05-02T06:12:46.329Z,13.50
2017-05-02T06:15:13.845Z,12.02
2017-05-02T06:17:41.405Z,11.84
2017-05-02T06:20:08.932Z,13.42
2017-05-02T06:22:36.492Z,12.72
2017-05-02T06:25:04.015Z,12.84
2017-05-02T06:27:31.699Z,12.68
2017-05-02T06:29:59.220Z,14.72
2017-05-02T06:32:26.776Z,14.06
2017-05-02T06:34:54.361Z,13.68
2017-05-02T06:37:21.887Z,12.54
2017-05-02T06:39:49.455Z,14.64
2017-05-02T06:42:16.973Z,13.30
2017-05-02T06:44:44.651Z,12.52
2017-05-02T06:47:12.167Z,11.20
2017-05-02T06:49:39.731Z,13.82
2017-05-02T06:52:07.293Z,13.30
2017-05-02T06:54:34.812Z,12.90
2017-05-02T06:57:02.484Z,13.58
2017-05-02T06:59:30.040Z,14.60
2017-05-02T07:01:57.567Z,12.18
2017-05-02T07:04:25.196Z,13.72
2017-05-02T07:06:52.744Z,13.92
2017-05-02T07:09:20.723Z,14.20
2017-05-02T07:11:48.295Z,14.30
2017-05-02T07:14:15.819Z,14.82
2017-05-02T07:16:43.491Z,14.72
2017-05-02T07:19:11.015Z,14.56
2017-05-02T07:21:38.506Z,13.16
2017-05-02T07:24:06.083Z,13.76
2017-05-02T07:26:33.625Z,13.72
2017-05-02T07:29:01.364Z,13.74
2017-05-02T07:31:28.895Z,16.00
2017-05-02T07:33:56.441Z,15.04
2017-05-02T07:36:24.015Z,16.14
2017-05-02T07:38:51.543Z,17.42
2017-05-02T07:41:19.489Z,18.08
2017-05-02T07:43:47.021Z,17.70
2017-05-02T07:46:14.539Z,17.50
2017-05-02T07:48:42.100Z,19.22
2017-05-02T07:51:09.632Z,18.46
2017-05-02T07:53:37.216Z,20.60
2017-05-02T07:56:04.747Z,18.66
2017-05-02T07:58:32.422Z,21.54
2017-05-02T08:00:59.963Z,18.30
2017-05-02T08:03:28.265Z,21.46
2017-05-02T08:05:55.833Z,21.38
2017-05-02T08:08:23.362Z,21.72
2017-05-02T08:10:50.935Z,22.46
2017-05-02T08:13:18.548Z,22.84
2017-05-02T08:15:46.328Z,21.56
2017-05-02T08:18:13.844Z,23.96
2017-05-02T08:20:41.362Z,23.46
2017-05-02T08:23:08.965Z,25.20
2017-05-02T08:25:36.507Z,24.50
2017-05-02T08:28:04.061Z,24.46
2017-05-02T08:30:31.588Z,25.54
2017-05-02T08:32:59.297Z,24.16
2017-05-02T08:35:26.861Z,24.10
2017-05-02T08:37:54.448Z,23.76
2017-05-02T08:40:22.044Z,25.04
2017-05-02T08:42:49.572Z,23.78
2017-05-02T08:45:17.298Z,24.94
2017-05-02T08:47:44.847Z,24.20
2017-05-02T08:50:12.413Z,24.24
2017-05-02T08:52:40.081Z,23.92
2017-05-02T08:55:07.600Z,22.46
2017-05-02T08:57:35.556Z,23.52
2017-05-02T09:00:03.155Z,24.00
2017-05-02T09:02:30.721Z,22.74
2017-05-02T09:04:58.340Z,23.90
2017-05-02T09:07:25.883Z,26.40
2017-05-02T09:09:53.457Z,24.48
2017-05-02T09:12:21.003Z,24.42
2017-05-02T09:14:48.677Z,27.58
2017-05-02T09:17:16.225Z,24.84
2017-05-02T09:19:43.757Z,26.54
2017-05-02T09:22:11.327Z,26.36
2017-05-02T09:24:38.848Z,24.66
2017-05-02T09:27:06.421Z,27.54
2017-05-02T09:29:33.967Z,25.46
2017-05-02T09:32:01.681Z,26.46
2017-05-02T09:34:29.196Z,26.06
2017-05-02T09:36:56.719Z,27.10
2017-05-02T09:39:24.317Z,26.38
2017-05-02T09:41:51.868Z,27.56
2017-05-02T09:44:19.597Z,25.62
2017-05-02T09:46:47.139Z,28.58
2017-05-02T09:49:14.662Z,26.26
2017-05-02T09:51:42.245Z,29.58
2017-05-02T09:54:09.815Z,29.28
2017-05-02T09:56:37.523Z,26.42
2017-05-02T09:59:05.050Z,28.66
2017-05-02T10:01:32.571Z,26.30
2017-05-02T10:04:00.132Z,28.10
2017-05-02T10:06:27.663Z,31.12
2017-05-02T10:08:55.391Z,29.14
2017-05-02T10:11:22.930Z,27.96
2017-05-02T10:13:50.452Z,30.12
2017-05-02T10:16:18.027Z,27.50
2017-05-02T10:18:45.560Z,29.92
2017-05-02T10:21:13.133Z,32.10
2017-05-02T10:23:40.651Z,30.06
2017-05-02T10:26:08.576Z,30.84
2017-05-02T10:28:36.114Z,29.14
2017-05-02T10:31:03.661Z,27.62
2017-05-02T10:33:31.230Z,28.06
2017-05-02T10:35:58.763Z,28.52
2017-05-02T10:38:26.520Z,28.90
2017-05-02T10:40:54.063Z,29.36
2017-05-02T10:43:21.604Z,29.36
2017-05-02T10:45:49.181Z,27.44
2017-05-02T10:48:16.712Z,28.90
2017-05-02T10:50:44.240Z,27.18
2017-05-02T10:53:11.783Z,30.76
2017-05-02T10:55:39.324Z,29.76
2017-05-02T10:58:06.899Z,29.82
2017-05-02T11:00:34.423Z,28.10
2017-05-02T11:03:02.098Z,30.46
2017-05-02T11:05:29.711Z,27.86
2017-05-02T11:07:57.240Z,29.92
2017-05-02T11:10:24.807Z,30.06
2017-05-02T11:12:52.357Z,27.52
2017-05-02T11:15:19.942Z,29.52
2017-05-02T11:17:47.480Z,29.16
2017-05-02T11:20:15.058Z,27.40
2017-05-02T11:22:42.627Z,32.30
2017-05-02T11:25:10.287Z,28.70
2017-05-02T11:27:37.872Z,25.98
2017-05-02T11:30:05.401Z,26.56
2017-05-02T11:32:33.094Z,24.40
2017-05-02T11:35:00.633Z,24.58
2017-05-02T11:37:28.169Z,24.24
2017-05-02T11:39:55.795Z,22.76
2017-05-02T11:42:23.351Z,24.38
2017-05-02T11:44:51.073Z,24.54
2017-05-02T11:47:18.625Z,23.48
2017-05-02T11:49:46.160Z,23.10
2017-05-02T11:52:13.793Z,23.24
2017-05-02T11:54:41.327Z,22.42
2017-05-02T11:57:08.921Z,23.84
2017-05-02T11:59:36.450Z,23.58
2017-05-02T12:02:04.179Z,25.74
2017-05-02T12:04:31.731Z,21.38
2017-05-02T12:06:59.271Z,21.92
2017-05-02T12:09:26.876Z,22.22
2017-05-02T12:11:54.395Z,21.88
2017-05-02T12:14:22.127Z,22.64
2017-05-02T12:16:49.663Z,22.96
2017-05-02T12:19:17.200Z,26.06
2017-05-02T12:21:44.786Z,23.64
2017-05-02T12:24:12.338Z,24.36
2017-05-02T12:26:40.033Z,22.90
2017-05-02T12:29:07.570Z,23.98
2017-05-02T12:31:35.105Z,22.26
2017-05-02T12:34:02.662Z,22.38
2017-05-02T12:36:30.201Z,22.60
2017-05-02T12:38:57.988Z,18.96
2017-05-02T12:41:25.534Z,19.52
2017-05-02T12:43:53.062Z,20.36
2017-05-02T12:46:21.647Z,18.10
2017-05-02T12:48:49.217Z,17.76
2017-05-02T12:51:16.852Z,19.36
2017-05-02T12:53:44.393Z,25.88
2017-05-02T12:56:12.072Z,19.80
2017-05-02T12:58:39.647Z,17.52
2017-05-02T13:01:07.179Z,19.18
2017-05-02T13:03:34.779Z,20.02
2017-05-02T13:06:02.352Z,17.04
2017-05-02T13:08:29.937Z,17.56
2017-05-02T13:10:57.494Z,19.10
2017-05-02T13:13:25.451Z,19.96
2017-05-02T13:15:53.001Z,18.18
2017-05-02T13:18:20.560Z,19.76
2017-05-02T13:20:48.184Z,20.44
2017-05-02T13:23:15.714Z,20.52
2017-05-02T13:25:43.548Z,20.96
2017-05-02T13:28:11.090Z,20.84
2017-05-02T13:30:38.664Z,20.32
2017-05-02T13:33:06.249Z,20.54
2017-05-02T13:35:33.822Z,22.72
2017-05-02T13:38:01.484Z,21.88
2017-05-02T13:40:29.047Z,21.30
2017-05-02T13:42:56.736Z,20.68
2017-05-02T13:45:24.267Z,20.32
2017-05-02T13:47:51.812Z,20.58
2017-05-02T13:50:19.345Z,19.88
2017-05-02T13:52:47.321Z,20.12
2017-05-02T13:55:14.876Z,21.44
2017-05-02T13:57:42.403Z,23.60
2017-05-02T14:00:10.232Z,22.58
2017-05-02T14:02:37.783Z,23.68
2017-05-02T14:05:05.341Z,23.90
2017-05-02T14:07:33.292Z,26.64
2017-05-02T14:10:00.847Z,23.86
2017-05-02T14:12:28.379Z,25.18
2017-05-02T14:14:56.252Z,29.02
2017-05-02T14:17:23.802Z,30.60
2017-05-02T14:19:51.339Z,28.14
2017-05-02T14:22:19.255Z,28.26
2017-05-02T14:24:46.816Z,27.06
2017-05-02T14:27:14.385Z,30.94
2017-05-02T14:29:41.980Z,28.46
2017-05-02T14:32:09.676Z,30.14
2017-05-02T14:34:37.211Z,28.96
2017-05-02T14:37:04.749Z,29.16
2017-05-02T14:39:32.340Z,29.20
2017-05-02T14:41:59.941Z,28.54
2017-05-02T14:44:27.591Z,29.52
2017-05-02T14:46:55.147Z,33.20
2017-05-02T14:49:23.069Z,36.12
2017-05-02T14:51:50.676Z,29.72
2017-05-02T14:54:18.209Z,30.28
2017-05-02T14:56:46.085Z,30.30
2017-05-02T14:59:13.637Z,32.00
2017-05-02T15:01:41.170Z,31.80
2017-05-02T15:04:08.747Z,32.70
2017-05-02T15:06:36.274Z,30.16
2017-05-02T15:09:14.635Z,26.56
2017-05-02T15:11:45.165Z,25.72
2017-05-02T15:14:12.753Z,26.14
2017-05-02T15:16:40.480Z,25.46
2017-05-02T15:19:08.071Z,24.76
2017-05-02T15:21:35.942Z,23.96
2017-05-02T15:24:03.552Z,23.50
2017-05-02T15:26:31.097Z,21.44
2017-05-02T15:28:58.683Z,19.82
2017-05-02T15:31:26.247Z,16.52
2017-05-02T15:33:53.839Z,12.86
2017-05-02T15:36:21.374Z,11.28
2017-05-02T15:38:49.000Z,11.92
2017-05-02T15:41:16.583Z,11.90
2017-05-02T15:43:44.188Z,10.10
2017-05-02T15:46:11.792Z,11.60
2017-05-02T15:48:39.390Z,11.10
2017-05-02T15:51:07.354Z,10.18
2017-05-02T15:53:34.961Z,11.08
2017-05-02T15:56:02.508Z,10.42
2017-05-02T15:58:30.059Z,9.96
2017-05-02T16:00:57.584Z,10.82
2017-05-02T16:03:25.440Z,10.94
2017-05-02T16:05:52.991Z,10.84
2017-05-02T16:08:20.539Z,11.30
2017-05-02T16:10:48.450Z,10.28
2017-05-02T16:13:15.983Z,10.00
2017-05-02T16:15:43.552Z,10.26
2017-05-02T16:18:11.159Z,10.76
2017-05-02T16:20:38.707Z,8.82
2017-05-02T16:23:06.276Z,10.42
2017-05-02T16:25:33.816Z,8.66
2017-05-02T16:28:01.716Z,8.30
2017-05-02T16:30:29.363Z,8.32
2017-05-02T16:32:56.896Z,7.66
2017-05-02T16:35:24.543Z,7.68
2017-05-02T16:37:52.083Z,7.70
2017-05-02T16:40:20.042Z,6.60
2017-05-02T16:42:47.552Z,7.64
2017-05-02T16:45:15.103Z,6.08
2017-05-02T16:47:42.673Z,6.22
2017-05-02T16:50:10.306Z,6.82
2017-05-02T16:52:37.869Z,5.98
2017-05-02T16:55:05.391Z,5.36
2017-05-02T16:57:32.911Z,6.22
2017-05-02T17:00:00.518Z,5.80
2017-05-02T17:02:28.045Z,8.86
2017-05-02T17:04:55.628Z,13.96
2017-05-02T17:07:23.207Z,7.88
2017-05-02T17:09:50.848Z,7.14
2017-05-02T17:12:18.432Z,13.80
2017-05-02T17:14:45.968Z,7.94
2017-05-02T17:17:13.616Z,6.00
2017-05-02T17:19:41.212Z,6.08
2017-05-02T17:22:08.811Z,4.40
2017-05-02T17:24:36.383Z,4.14
2017-05-02T17:27:03.907Z,4.36
2017-05-02T17:29:31.427Z,3.90
2017-05-02T17:31:58.999Z,4.06
2017-05-02T17:34:26.536Z,3.20
2017-05-02T17:36:54.177Z,3.14
2017-05-02T17:39:21.706Z,3.62
2017-05-02T17:41:49.411Z,4.04
2017-05-02T17:44:16.976Z,23.52
2017-05-02T17:46:44.642Z,3.66
2017-05-02T17:49:12.280Z,17.08
2017-05-02T17:51:39.836Z,7.08
2017-05-02T17:54:07.731Z,5.82
2017-05-02T17:56:35.255Z,3.56
2017-05-02T17:59:02.776Z,3.50
2017-05-02T18:01:30.357Z,3.16
2017-05-02T18:03:57.907Z,3.06
2017-05-02T18:06:25.619Z,3.32
2017-05-02T18:08:53.183Z,3.42
2017-05-02T18:11:20.708Z,38.66
2017-05-02T18:13:48.263Z,14.00
2017-05-02T18:16:15.775Z,4.52
2017-05-02T18:18:43.479Z,3.64
2017-05-02T18:21:11.011Z,3.60
2017-05-02T18:23:38.541Z,4.08
2017-05-02T18:26:06.172Z,4.60
2017-05-02T18:28:33.712Z,3.84
2017-05-02T18:31:01.252Z,5.04
2017-05-02T18:33:28.897Z,4.42
2017-05-02T18:35:56.474Z,5.00
2017-05-02T18:38:24.508Z,4.82
2017-05-02T18:40:52.033Z,6.22
2017-05-02T18:43:19.564Z,5.10
2017-05-02T18:45:47.134Z,6.10
2017-05-02T18:48:14.658Z,6.88
2017-05-02T18:50:42.395Z,5.96
2017-05-02T18:53:09.907Z,6.04
2017-05-02T18:55:37.440Z,4.64
2017-05-02T18:58:05.034Z,5.46
2017-05-02T19:00:32.544Z,4.68
2017-05-02T19:03:00.100Z,4.80
2017-05-02T19:05:27.683Z,4.98
2017-05-02T19:07:55.918Z,5.04
2017-05-02T19:10:23.510Z,4.50
2017-05-02T19:12:51.048Z,4.84
2017-05-02T19:15:18.631Z,4.72
2017-05-02T19:17:46.170Z,5.02
2017-05-02T19:20:14.133Z,4.88
2017-05-02T19:22:41.760Z,7.10
2017-05-02T19:25:09.272Z,6.30
2017-05-02T19:27:37.205Z,5.94
2017-05-02T19:30:04.724Z,5.30
2017-05-02T19:32:32.251Z,5.88
2017-05-02T19:34:59.796Z,6.06
2017-05-02T19:37:27.357Z,7.06
2017-05-02T19:39:55.202Z,6.30
2017-05-02T19:42:22.735Z,7.18
2017-05-02T19:44:50.272Z,6.94
2017-05-02T19:47:17.823Z,6.52
2017-05-02T19:49:45.356Z,30.86
2017-05-02T19:52:12.904Z,10.62
2017-05-02T19:54:40.440Z,10.28
2017-05-02T19:57:08.353Z,6.36
2017-05-02T19:59:35.896Z,7.32
2017-05-02T20:02:03.427Z,7.74
2017-05-02T20:04:30.983Z,9.38
2017-05-02T20:06:58.537Z,7.62
2017-05-02T20:09:26.154Z,8.32
2017-05-02T20:11:53.690Z,8.34
2017-05-02T20:14:21.507Z,8.62
2017-05-02T20:16:49.029Z,8.80
2017-05-02T20:19:16.570Z,9.88
2017-05-02T20:21:44.144Z,8.18
2017-05-02T20:24:12.442Z,10.94
2017-05-02T20:26:40.145Z,11.86
2017-05-02T20:29:07.686Z,12.78
2017-05-02T20:31:35.277Z,10.86
2017-05-02T20:34:02.845Z,11.70
2017-05-02T20:36:30.406Z,11.28
2017-05-02T20:38:58.007Z,12.06
2017-05-02T20:41:25.538Z,11.26
2017-05-02T20:43:53.234Z,12.30
2017-05-02T20:46:20.847Z,13.48
2017-05-02T20:48:48.360Z,12.16
2017-05-02T20:51:15.932Z,13.62
2017-05-02T20:53:43.483Z,14.96
2017-05-02T20:56:11.124Z,13.66
2017-05-02T20:58:38.702Z,13.68
2017-05-02T21:01:06.713Z,12.56
2017-05-02T21:03:34.269Z,13.66
2017-05-02T21:06:01.801Z,14.04
2017-05-02T21:08:29.394Z,14.66
2017-05-02T21:10:56.914Z,14.18
2017-05-02T21:13:24.589Z,13.68
2017-05-02T21:15:52.148Z,13.44
2017-05-02T21:18:19.670Z,15.76
2017-05-02T21:20:47.239Z,14.64
2017-05-02T21:23:14.788Z,16.44
2017-05-02T21:25:42.377Z,15.98
2017-05-02T21:28:09.891Z,14.64
2017-05-02T21:30:37.589Z,16.86
2017-05-02T21:33:05.113Z,15.88
2017-05-02T21:35:32.656Z,18.38
2017-05-02T21:38:00.214Z,16.98
2017-05-02T21:40:27.739Z,15.68
2017-05-02T21:42:55.684Z,15.06
2017-05-02T21:45:23.200Z,16.70
2017-05-02T21:47:50.732Z,17.80
2017-05-02T21:50:18.606Z,18.40
2017-05-02T21:52:46.129Z,17.22
2017-05-02T21:55:13.651Z,17.20
2017-05-02T21:57:41.226Z,18.74
2017-05-02T22:00:08.743Z,19.00
2017-05-02T22:02:36.684Z,19.72
2017-05-02T22:05:04.206Z,18.62
2017-05-02T22:07:32.343Z,16.78
2017-05-02T22:10:00.278Z,18.20
2017-05-02T22:12:28.704Z,16.74
2017-05-02T22:14:56.872Z,17.02
2017-05-02T22:17:25.419Z,15.80
2017-05-02T22:19:52.927Z,16.64
2017-05-02T22:22:20.512Z,16.00
2017-05-02T22:24:48.047Z,14.02
2017-05-02T22:27:15.732Z,13.88
2017-05-02T22:29:43.269Z,15.50
2017-05-02T22:32:10.899Z,13.90
2017-05-02T22:34:38.473Z,12.40
2017-05-02T22:37:06.012Z,13.66
2017-05-02T22:39:33.595Z,12.36
2017-05-02T22:42:01.174Z,12.64
2017-05-02T22:44:28.912Z,12.02
2017-05-02T22:46:56.448Z,12.96
2017-05-02T22:49:24.044Z,12.82
2017-05-02T22:51:51.624Z,13.20
2017-05-02T22:54:19.182Z,13.52
2017-05-02T22:56:46.783Z,12.64
2017-05-02T22:59:14.338Z,13.00
2017-05-02T23:01:42.186Z,11.36
2017-05-02T23:04:09.725Z,13.86
2017-05-02T23:06:37.264Z,12.92
2017-05-02T23:09:04.849Z,13.32
2017-05-02T23:11:32.377Z,13.62
2017-05-02T23:13:59.944Z,12.82
2017-05-02T23:16:27.460Z,13.38
2017-05-02T23:18:55.189Z,14.02
2017-05-02T23:21:22.710Z,13.82
2017-05-02T23:23:50.244Z,12.62
2017-05-02T23:26:17.900Z,13.50
2017-05-02T23:28:45.423Z,14.76
2017-05-02T23:31:13.093Z,13.78
2017-05-02T23:33:40.628Z,13.30
2017-05-02T23:36:08.143Z,14.04
2017-05-02T23:38:35.789Z,13.16
2017-05-02T23:41:03.421Z,11.84
2017-05-02T23:43:31.083Z,13.10
2017-05-02T23:45:58.624Z,13.14
2017-05-02T23:48:26.155Z,14.46
2017-05-02T23:50:53.741Z,13.18
2017-05-02T23:53:21.283Z,12.54
2017-05-02T23:55:48.850Z,13.82
2017-05-02T23:58:16.456Z,12.28
